createdAt,value
2019-01-30T00:00:37.059Z,89.67
2019-01-30T00:03:05.884Z,89.66
2019-01-30T00:05:34.310Z,89.60
2019-01-30T00:08:02.765Z,89.59
2019-01-30T00:10:31.207Z,89.65
2019-01-30T00:12:59.679Z,89.67
2019-01-30T00:15:28.115Z,89.74
2019-01-30T00:17:56.862Z,89.95
2019-01-30T00:20:25.327Z,90.04
2019-01-30T00:22:53.799Z,90.00
2019-01-30T00:25:24.027Z,90.03
2019-01-30T00:27:52.643Z,89.99
2019-01-30T00:30:28.794Z,89.96
2019-01-30T00:32:57.277Z,90.04
2019-01-30T00:35:25.727Z,90.05
2019-01-30T00:37:54.162Z,89.94
2019-01-30T00:40:22.887Z,89.77
2019-01-30T00:42:51.331Z,89.68
2019-01-30T00:45:20.042Z,89.60
2019-01-30T00:47:48.777Z,89.52
2019-01-30T00:50:17.268Z,89.53
2019-01-30T00:52:46.043Z,89.48
2019-01-30T00:55:14.829Z,89.38
2019-01-30T00:57:43.261Z,89.39
2019-01-30T01:00:16.754Z,89.32
2019-01-30T01:02:45.189Z,89.25
2019-01-30T01:05:13.637Z,89.08
2019-01-30T01:07:42.105Z,89.02
2019-01-30T01:10:11.792Z,88.93
2019-01-30T01:12:40.546Z,88.73
2019-01-30T01:15:10.804Z,88.60
2019-01-30T01:17:39.542Z,88.53
2019-01-30T01:20:09.911Z,88.65
2019-01-30T01:22:38.372Z,88.86
2019-01-30T01:25:08.642Z,89.07
2019-01-30T01:27:37.113Z,89.27
2019-01-30T01:30:07.420Z,89.25
2019-01-30T01:32:35.871Z,89.17
2019-01-30T01:35:04.879Z,89.10
2019-01-30T01:37:33.328Z,89.06
2019-01-30T01:40:01.774Z,88.96
2019-01-30T01:42:30.220Z,88.85
2019-01-30T01:44:58.653Z,88.75
2019-01-30T01:47:27.364Z,88.73
2019-01-30T01:49:56.082Z,88.73
2019-01-30T01:52:24.533Z,88.65
2019-01-30T01:54:53.005Z,88.44
2019-01-30T01:57:21.459Z,88.24
2019-01-30T01:59:49.904Z,88.15
2019-01-30T02:02:18.366Z,88.08
2019-01-30T02:04:46.817Z,88.08
2019-01-30T02:07:15.248Z,88.07
2019-01-30T02:09:43.709Z,88.06
2019-01-30T02:12:12.180Z,87.92
2019-01-30T02:14:40.618Z,87.92
2019-01-30T02:17:09.069Z,88.00
2019-01-30T02:19:37.513Z,88.13
2019-01-30T02:22:06.308Z,88.23
2019-01-30T02:24:35.088Z,88.25
2019-01-30T02:27:03.534Z,88.21
2019-01-30T02:29:31.978Z,88.25
2019-01-30T02:32:00.457Z,88.26
2019-01-30T02:34:29.218Z,88.32
2019-01-30T02:36:57.939Z,88.33
2019-01-30T02:39:26.811Z,88.27
2019-01-30T02:41:55.503Z,88.24
2019-01-30T02:44:23.996Z,88.30
2019-01-30T02:46:53.052Z,88.30
2019-01-30T02:49:22.046Z,88.16
2019-01-30T02:51:50.716Z,87.90
2019-01-30T02:54:19.173Z,87.84
2019-01-30T02:56:47.969Z,87.79
2019-01-30T02:59:16.997Z,87.64
2019-01-30T03:04:41.002Z,87.34
2019-01-30T03:07:09.783Z,87.24
2019-01-30T03:09:38.222Z,87.18
2019-01-30T03:12:06.749Z,87.08
2019-01-30T03:14:35.508Z,86.96
2019-01-30T03:17:03.936Z,86.98
2019-01-30T03:19:32.676Z,86.93
2019-01-30T03:22:01.682Z,87.00
2019-01-30T03:24:30.136Z,86.96
2019-01-30T03:26:58.569Z,86.85
2019-01-30T03:29:27.261Z,86.75
2019-01-30T03:31:55.953Z,86.57
2019-01-30T03:34:24.702Z,86.61
2019-01-30T03:36:53.486Z,86.63
2019-01-30T03:39:22.329Z,86.45
2019-01-30T03:41:50.723Z,86.30
2019-01-30T03:44:19.174Z,86.21
2019-01-30T03:46:47.926Z,86.25
2019-01-30T03:49:16.371Z,86.28
2019-01-30T03:51:45.101Z,86.46
2019-01-30T03:54:13.569Z,86.47
2019-01-30T03:56:42.001Z,86.51
2019-01-30T03:59:11.153Z,86.58
2019-01-30T04:01:39.585Z,86.69
2019-01-30T04:04:08.316Z,86.83
2019-01-30T04:06:37.002Z,86.85
2019-01-30T04:09:07.274Z,86.83
2019-01-30T04:11:35.716Z,86.66
2019-01-30T04:14:04.185Z,86.65
2019-01-30T04:16:32.719Z,86.66
2019-01-30T04:19:01.451Z,86.55
2019-01-30T04:21:29.906Z,86.56
2019-01-30T04:23:58.359Z,86.62
2019-01-30T04:26:26.792Z,86.72
2019-01-30T04:28:55.582Z,86.73
2019-01-30T04:31:24.017Z,86.63
2019-01-30T04:33:52.463Z,86.61
2019-01-30T04:36:20.901Z,86.57
2019-01-30T04:38:49.701Z,86.55
2019-01-30T04:41:18.116Z,86.48
2019-01-30T04:43:46.975Z,86.53
2019-01-30T04:46:15.435Z,86.53
2019-01-30T04:48:43.864Z,86.54
2019-01-30T04:51:12.632Z,86.61
2019-01-30T04:53:41.625Z,86.59
2019-01-30T04:56:10.079Z,86.78
2019-01-30T04:58:38.787Z,86.74
2019-01-30T05:01:07.235Z,86.73
2019-01-30T05:03:35.955Z,86.53
2019-01-30T05:06:04.848Z,86.54
2019-01-30T05:08:33.360Z,86.61
2019-01-30T05:11:01.823Z,86.69
2019-01-30T05:13:30.910Z,86.58
2019-01-30T05:15:59.353Z,86.52
2019-01-30T05:18:28.064Z,86.50
2019-01-30T05:20:56.513Z,86.65
2019-01-30T05:23:24.951Z,86.49
2019-01-30T05:25:53.397Z,86.49
2019-01-30T05:28:22.091Z,86.51
2019-01-30T05:30:50.542Z,86.69
2019-01-30T05:33:19.317Z,86.80
2019-01-30T05:35:47.763Z,86.83
2019-01-30T05:38:16.206Z,86.68
2019-01-30T05:40:45.008Z,86.65
2019-01-30T05:43:13.446Z,86.84
2019-01-30T05:45:42.127Z,86.90
2019-01-30T05:48:10.862Z,86.91
2019-01-30T05:50:39.319Z,86.98
2019-01-30T05:53:08.044Z,87.09
2019-01-30T05:55:36.745Z,87.14
2019-01-30T05:58:05.513Z,87.08
2019-01-30T06:00:38.497Z,87.08
2019-01-30T06:03:07.298Z,87.02
2019-01-30T06:05:35.725Z,87.06
2019-01-30T06:08:04.184Z,87.11
2019-01-30T06:10:32.886Z,87.12
2019-01-30T06:13:01.604Z,87.16
2019-01-30T06:15:30.394Z,87.19
2019-01-30T06:17:59.183Z,87.07
2019-01-30T06:20:27.962Z,87.05
2019-01-30T06:22:56.852Z,86.94
2019-01-30T06:25:25.290Z,86.99
2019-01-30T06:27:53.867Z,86.84
2019-01-30T06:30:22.716Z,86.73
2019-01-30T06:32:51.138Z,86.68
2019-01-30T06:35:19.577Z,86.54
2019-01-30T06:37:48.045Z,86.52
2019-01-30T06:40:34.747Z,86.52
2019-01-30T06:43:03.589Z,86.06
2019-01-30T06:45:32.333Z,86.06
2019-01-30T06:48:01.096Z,86.01
2019-01-30T06:50:29.537Z,85.98
2019-01-30T06:52:57.986Z,86.04
2019-01-30T06:55:26.656Z,85.94
2019-01-30T06:57:55.450Z,85.98
2019-01-30T07:00:25.877Z,86.15
2019-01-30T07:02:54.976Z,86.18
2019-01-30T07:05:23.652Z,86.11
2019-01-30T07:07:52.358Z,86.09
2019-01-30T07:10:26.363Z,86.15
2019-01-30T07:12:55.143Z,86.06
2019-01-30T07:15:23.615Z,86.15
2019-01-30T07:17:52.063Z,86.08
2019-01-30T07:20:20.499Z,86.17
2019-01-30T07:22:49.271Z,86.16
2019-01-30T07:25:18.310Z,86.14
2019-01-30T07:27:46.765Z,86.07
2019-01-30T07:30:23.354Z,86.25
2019-01-30T07:32:51.900Z,86.29
2019-01-30T07:35:20.337Z,86.44
2019-01-30T07:37:49.068Z,86.48
2019-01-30T07:40:17.854Z,86.30
2019-01-30T07:42:46.541Z,86.03
2019-01-30T07:45:17.323Z,85.81
2019-01-30T07:47:45.761Z,85.66
2019-01-30T07:50:14.548Z,85.79
2019-01-30T07:52:43.008Z,85.15
2019-01-30T07:55:13.386Z,85.35
2019-01-30T07:57:42.141Z,85.27
2019-01-30T08:00:14.409Z,85.38
2019-01-30T08:02:52.628Z,85.37
2019-01-30T08:05:13.364Z,85.04
2019-01-30T08:07:41.801Z,84.70
2019-01-30T08:10:11.541Z,84.12
2019-01-30T08:12:40.604Z,83.58
2019-01-30T08:15:11.989Z,83.37
2019-01-30T08:17:40.430Z,83.36
2019-01-30T08:20:11.265Z,83.62
2019-01-30T08:22:41.403Z,83.94
2019-01-30T08:25:11.129Z,83.14
2019-01-30T08:27:40.867Z,82.45
2019-01-30T08:30:22.315Z,82.38
2019-01-30T08:32:44.261Z,82.22
2019-01-30T08:35:13.414Z,81.86
2019-01-30T08:37:41.887Z,81.62
2019-01-30T08:40:10.685Z,81.32
2019-01-30T08:42:39.124Z,81.51
2019-01-30T08:45:09.628Z,81.58
2019-01-30T08:47:38.380Z,81.38
2019-01-30T08:50:07.833Z,80.62
2019-01-30T08:52:36.268Z,79.83
2019-01-30T08:55:05.093Z,80.26
2019-01-30T08:57:33.531Z,78.73
2019-01-30T09:00:02.332Z,78.33
2019-01-30T09:02:31.102Z,79.63
2019-01-30T09:04:59.795Z,77.73
2019-01-30T09:07:28.224Z,77.68
2019-01-30T09:09:57.068Z,77.06
2019-01-30T09:12:25.499Z,78.07
2019-01-30T09:14:53.937Z,77.11
2019-01-30T09:17:22.703Z,77.43
2019-01-30T09:19:51.140Z,75.80
2019-01-30T09:22:19.880Z,76.56
2019-01-30T09:24:48.653Z,76.14
2019-01-30T09:27:18.371Z,75.39
2019-01-30T09:29:46.842Z,74.69
2019-01-30T09:32:15.283Z,75.54
2019-01-30T09:34:44.014Z,74.87
2019-01-30T09:37:12.477Z,75.97
2019-01-30T09:39:44.150Z,74.70
2019-01-30T09:42:12.933Z,74.49
2019-01-30T09:44:41.625Z,73.75
2019-01-30T09:47:10.350Z,73.68
2019-01-30T09:49:38.809Z,73.44
2019-01-30T09:52:07.231Z,73.03
2019-01-30T09:54:35.993Z,72.11
2019-01-30T09:57:04.405Z,72.44
2019-01-30T09:59:32.843Z,72.05
2019-01-30T10:02:01.302Z,70.96
2019-01-30T10:04:29.727Z,71.78
2019-01-30T10:06:58.463Z,71.59
2019-01-30T10:09:26.891Z,70.51
2019-01-30T10:11:55.343Z,70.85
2019-01-30T10:14:28.507Z,70.55
2019-01-30T10:16:57.362Z,71.09
2019-01-30T10:19:26.038Z,71.58
2019-01-30T10:21:54.505Z,71.33
2019-01-30T10:24:22.943Z,70.92
2019-01-30T10:26:51.584Z,70.44
2019-01-30T10:29:19.991Z,69.76
2019-01-30T10:31:48.699Z,70.03
2019-01-30T10:34:17.124Z,70.70
2019-01-30T10:36:45.597Z,70.01
2019-01-30T10:39:14.350Z,69.64
2019-01-30T10:41:43.137Z,69.83
2019-01-30T10:44:11.659Z,68.56
2019-01-30T10:46:40.260Z,70.06
2019-01-30T10:49:08.760Z,70.20
2019-01-30T10:51:37.473Z,70.09
2019-01-30T10:54:05.923Z,69.93
2019-01-30T10:56:34.633Z,69.69
2019-01-30T10:59:03.531Z,69.15
2019-01-30T11:01:31.986Z,69.50
2019-01-30T11:04:00.414Z,69.25
2019-01-30T11:06:28.846Z,69.46
2019-01-30T11:09:01.734Z,69.13
2019-01-30T11:14:22.157Z,68.08
2019-01-30T11:16:56.065Z,67.13
2019-01-30T11:19:24.662Z,68.80
2019-01-30T11:21:53.721Z,67.10
2019-01-30T11:24:22.143Z,67.08
2019-01-30T11:26:50.596Z,65.32
2019-01-30T11:29:19.398Z,64.25
2019-01-30T11:31:47.833Z,66.90
2019-01-30T11:34:16.283Z,65.95
2019-01-30T11:36:44.715Z,63.48
2019-01-30T11:39:13.174Z,66.48
2019-01-30T11:41:41.638Z,66.64
2019-01-30T11:44:10.092Z,67.13
2019-01-30T11:46:38.539Z,66.90
2019-01-30T11:49:07.241Z,67.46
2019-01-30T11:51:35.667Z,67.75
2019-01-30T11:54:04.128Z,66.34
2019-01-30T11:56:32.883Z,67.77
2019-01-30T11:59:01.680Z,69.96
2019-01-30T12:01:30.471Z,68.68
2019-01-30T12:03:58.906Z,69.12
2019-01-30T12:06:27.357Z,69.65
2019-01-30T12:08:55.817Z,69.26
2019-01-30T12:11:24.245Z,70.10
2019-01-30T12:13:52.985Z,68.90
2019-01-30T12:16:21.763Z,70.79
2019-01-30T12:18:50.227Z,70.85
2019-01-30T12:21:18.922Z,70.87
2019-01-30T12:23:47.501Z,72.11
2019-01-30T12:26:16.191Z,72.36
2019-01-30T12:28:44.704Z,71.61
2019-01-30T12:31:13.130Z,70.38
2019-01-30T12:33:41.599Z,71.28
2019-01-30T12:36:11.143Z,71.21
2019-01-30T12:38:39.930Z,72.39
2019-01-30T12:41:08.400Z,72.14
2019-01-30T12:43:37.203Z,72.10
2019-01-30T12:46:05.640Z,72.78
2019-01-30T12:48:34.364Z,72.56
2019-01-30T12:51:02.814Z,73.08
2019-01-30T12:53:31.264Z,72.67
2019-01-30T12:56:00.013Z,73.06
2019-01-30T12:58:28.798Z,73.89
2019-01-30T13:00:57.583Z,74.62
2019-01-30T13:03:26.377Z,74.19
2019-01-30T13:05:55.163Z,74.42
2019-01-30T13:08:23.954Z,73.72
2019-01-30T13:10:52.439Z,74.05
2019-01-30T13:13:20.874Z,74.08
2019-01-30T13:15:49.323Z,73.54
2019-01-30T13:18:18.736Z,73.05
2019-01-30T13:20:47.577Z,71.58
2019-01-30T13:23:16.027Z,72.31
2019-01-30T13:25:44.746Z,72.70
2019-01-30T13:28:13.183Z,72.68
2019-01-30T13:30:43.603Z,72.17
2019-01-30T13:33:11.855Z,72.07
2019-01-30T13:35:40.345Z,71.25
2019-01-30T13:38:08.778Z,71.54
2019-01-30T13:40:39.158Z,70.60
2019-01-30T13:43:10.083Z,71.53
2019-01-30T13:45:38.562Z,71.38
2019-01-30T13:48:12.752Z,71.56
2019-01-30T13:50:41.189Z,72.67
2019-01-30T13:53:14.366Z,73.48
2019-01-30T13:55:42.184Z,73.38
2019-01-30T13:58:10.663Z,74.97
2019-01-30T14:00:39.141Z,75.37
2019-01-30T14:03:08.290Z,75.34
2019-01-30T14:05:36.806Z,74.78
2019-01-30T14:08:06.989Z,75.07
2019-01-30T14:10:35.427Z,74.54
2019-01-30T14:13:04.609Z,75.07
2019-01-30T14:15:33.089Z,74.79
2019-01-30T14:18:01.563Z,74.40
2019-01-30T14:20:32.376Z,74.76
2019-01-30T14:23:00.861Z,74.62
2019-01-30T14:25:29.286Z,74.80
2019-01-30T14:28:01.689Z,74.63
2019-01-30T14:30:35.694Z,74.48
2019-01-30T14:33:04.407Z,73.91
2019-01-30T14:35:35.870Z,74.48
2019-01-30T14:38:04.362Z,74.42
2019-01-30T14:40:32.825Z,74.23
2019-01-30T14:43:01.228Z,74.56
2019-01-30T14:45:29.659Z,74.55
2019-01-30T14:47:58.361Z,75.01
2019-01-30T14:50:27.243Z,75.07
2019-01-30T14:52:55.973Z,74.94
2019-01-30T14:55:24.426Z,75.43
2019-01-30T14:57:53.136Z,75.61
2019-01-30T15:00:26.185Z,75.81
2019-01-30T15:02:54.628Z,76.22
2019-01-30T15:05:23.130Z,75.96
2019-01-30T15:07:51.702Z,76.30
2019-01-30T15:10:20.528Z,76.23
2019-01-30T15:12:49.018Z,75.69
2019-01-30T15:15:19.691Z,76.21
2019-01-30T15:17:48.453Z,75.81
2019-01-30T15:20:21.599Z,75.97
2019-01-30T15:22:50.028Z,76.07
2019-01-30T15:25:19.379Z,76.46
2019-01-30T15:27:47.852Z,76.39
2019-01-30T15:30:19.351Z,76.59
2019-01-30T15:32:48.144Z,76.87
2019-01-30T15:35:16.581Z,76.44
2019-01-30T15:37:45.718Z,76.52
2019-01-30T15:40:16.730Z,77.21
2019-01-30T15:42:49.407Z,76.97
2019-01-30T15:45:17.157Z,77.15
2019-01-30T15:47:45.618Z,76.92
2019-01-30T15:50:16.679Z,77.01
2019-01-30T15:52:45.426Z,77.38
2019-01-30T15:55:14.455Z,77.01
2019-01-30T15:57:43.909Z,76.87
2019-01-30T16:00:19.778Z,76.74
2019-01-30T16:02:48.878Z,77.14
2019-01-30T16:05:17.658Z,76.29
2019-01-30T16:07:46.106Z,78.38
2019-01-30T16:10:14.867Z,75.15
2019-01-30T16:12:44.410Z,75.67
2019-01-30T16:15:16.522Z,76.35
2019-01-30T16:17:44.535Z,76.19
2019-01-30T16:20:12.972Z,75.95
2019-01-30T16:22:41.437Z,76.65
2019-01-30T16:25:09.896Z,76.75
2019-01-30T16:27:38.604Z,76.46
2019-01-30T16:30:10.696Z,76.18
2019-01-30T16:32:38.417Z,76.71
2019-01-30T16:35:09.226Z,75.68
2019-01-30T16:37:37.947Z,75.37
2019-01-30T16:40:10.230Z,75.90
2019-01-30T16:42:38.682Z,75.42
2019-01-30T16:45:09.919Z,75.87
2019-01-30T16:47:40.050Z,76.18
2019-01-30T16:50:10.518Z,76.34
2019-01-30T16:52:38.994Z,76.62
2019-01-30T16:55:08.342Z,76.83
2019-01-30T16:57:37.115Z,77.04
2019-01-30T17:00:07.831Z,76.39
2019-01-30T17:02:36.284Z,76.56
2019-01-30T17:05:07.249Z,76.42
2019-01-30T17:07:35.696Z,76.60
2019-01-30T17:10:05.242Z,76.63
2019-01-30T17:12:33.960Z,76.91
2019-01-30T17:15:02.413Z,76.77
2019-01-30T17:17:31.039Z,76.67
2019-01-30T17:19:59.731Z,76.60
2019-01-30T17:22:28.170Z,76.70
2019-01-30T17:24:56.910Z,76.90
2019-01-30T17:27:25.323Z,76.74
2019-01-30T17:29:54.095Z,76.83
2019-01-30T17:32:22.764Z,76.93
2019-01-30T17:34:51.995Z,76.69
2019-01-30T17:37:20.942Z,76.79
2019-01-30T17:39:49.382Z,76.56
2019-01-30T17:42:18.120Z,76.83
2019-01-30T17:44:46.592Z,76.67
2019-01-30T17:47:15.885Z,76.36
2019-01-30T17:49:44.335Z,76.29
2019-01-30T17:52:12.773Z,76.83
2019-01-30T17:54:41.440Z,76.79
2019-01-30T17:57:09.998Z,76.69
2019-01-30T17:59:38.454Z,76.92
2019-01-30T18:02:09.267Z,76.92
2019-01-30T18:04:38.127Z,76.97
2019-01-30T18:07:06.568Z,77.25
2019-01-30T18:09:35.284Z,77.22
2019-01-30T18:12:06.248Z,77.36
2019-01-30T18:14:34.709Z,77.45
2019-01-30T18:17:03.913Z,77.45
2019-01-30T18:19:32.358Z,77.45
2019-01-30T18:22:01.032Z,77.66
2019-01-30T18:24:29.762Z,77.72
2019-01-30T18:26:58.218Z,78.10
2019-01-30T18:29:27.024Z,77.85
2019-01-30T18:31:55.824Z,77.76
2019-01-30T18:34:24.279Z,78.08
2019-01-30T18:36:52.716Z,77.93
2019-01-30T18:39:21.158Z,77.93
2019-01-30T18:41:49.603Z,78.07
2019-01-30T18:44:18.052Z,78.37
2019-01-30T18:46:46.803Z,78.28
2019-01-30T18:49:15.231Z,78.65
2019-01-30T18:51:44.168Z,79.04
2019-01-30T18:54:12.856Z,78.81
2019-01-30T18:56:41.341Z,78.87
2019-01-30T18:59:10.140Z,79.30
2019-01-30T19:01:38.700Z,79.19
2019-01-30T19:04:07.460Z,79.31
2019-01-30T19:06:35.966Z,79.98
2019-01-30T19:09:08.526Z,79.79
2019-01-30T19:11:40.083Z,79.69
2019-01-30T19:14:08.576Z,79.91
2019-01-30T19:16:37.557Z,79.92
2019-01-30T19:19:06.285Z,80.23
2019-01-30T19:21:34.854Z,80.33
2019-01-30T19:24:03.620Z,80.24
2019-01-30T19:26:32.904Z,80.51
2019-01-30T19:29:01.402Z,80.14
2019-01-30T19:31:29.896Z,80.07
2019-01-30T19:33:58.895Z,80.26
2019-01-30T19:36:27.762Z,80.31
2019-01-30T19:38:57.035Z,80.48
2019-01-30T19:41:26.034Z,80.32
2019-01-30T19:43:54.538Z,80.39
2019-01-30T19:46:23.118Z,80.39
2019-01-30T19:48:52.015Z,80.48
2019-01-30T19:51:20.622Z,80.63
2019-01-30T19:53:49.296Z,80.58
2019-01-30T19:56:18.765Z,80.72
2019-01-30T19:58:47.856Z,80.87
2019-01-30T20:01:16.442Z,80.91
2019-01-30T20:03:45.060Z,80.94
2019-01-30T20:06:13.707Z,81.00
2019-01-30T20:08:42.655Z,81.13
2019-01-30T20:11:11.660Z,80.90
2019-01-30T20:13:40.383Z,80.87
2019-01-30T20:16:09.508Z,80.83
2019-01-30T20:18:38.128Z,80.76
2019-01-30T20:21:07.390Z,81.26
2019-01-30T20:23:37.291Z,81.14
2019-01-30T20:26:05.975Z,81.08
2019-01-30T20:28:34.582Z,81.40
2019-01-30T20:33:37.850Z,81.66
2019-01-30T20:36:06.709Z,82.10
2019-01-30T20:38:35.242Z,82.26
2019-01-30T20:41:04.121Z,82.49
2019-01-30T20:43:32.719Z,82.83
2019-01-30T20:46:01.582Z,82.98
2019-01-30T20:48:30.070Z,83.10
2019-01-30T20:50:59.115Z,83.32
2019-01-30T20:53:27.718Z,83.53
2019-01-30T20:55:56.429Z,83.48
2019-01-30T20:58:24.934Z,83.69
2019-01-30T21:00:53.443Z,83.11
2019-01-30T21:03:22.344Z,83.49
2019-01-30T21:05:50.846Z,83.97
2019-01-30T21:08:20.073Z,83.69
2019-01-30T21:10:48.850Z,83.66
2019-01-30T21:13:17.655Z,83.40
2019-01-30T21:15:46.454Z,83.28
2019-01-30T21:18:18.009Z,83.48
2019-01-30T21:23:33.333Z,83.09
2019-01-30T21:26:01.782Z,83.23
2019-01-30T21:28:30.289Z,83.24
2019-01-30T21:30:58.943Z,83.17
2019-01-30T21:33:27.401Z,83.11
2019-01-30T21:35:55.865Z,82.73
2019-01-30T21:38:24.781Z,82.55
2019-01-30T21:40:53.285Z,83.07
2019-01-30T21:43:21.861Z,83.31
2019-01-30T21:45:50.342Z,83.33
2019-01-30T21:48:19.619Z,82.83
2019-01-30T21:50:48.195Z,82.93
2019-01-30T21:53:17.035Z,82.80
2019-01-30T21:55:48.539Z,83.19
2019-01-30T21:58:16.984Z,82.75
2019-01-30T22:00:45.523Z,82.84
2019-01-30T22:03:17.314Z,82.97
2019-01-30T22:05:45.791Z,83.09
2019-01-30T22:08:15.103Z,83.31
2019-01-30T22:10:43.678Z,83.19
2019-01-30T22:13:12.522Z,83.38
2019-01-30T22:15:41.292Z,83.18
2019-01-30T22:18:09.907Z,83.35
2019-01-30T22:20:38.455Z,83.52
2019-01-30T22:23:07.459Z,83.39
2019-01-30T22:25:35.948Z,83.27
2019-01-30T22:28:04.744Z,83.24
2019-01-30T22:30:36.604Z,83.40
2019-01-30T22:33:05.414Z,83.06
2019-01-30T22:35:34.215Z,83.35
2019-01-30T22:38:12.488Z,83.48
2019-01-30T22:40:36.725Z,83.63
2019-01-30T22:43:05.435Z,84.06
2019-01-30T22:45:34.018Z,84.29
2019-01-30T22:48:02.808Z,84.44
2019-01-30T22:50:31.399Z,84.56
2019-01-30T22:53:00.181Z,84.50
2019-01-30T22:55:28.816Z,84.54
2019-01-30T22:57:57.339Z,84.62
2019-01-30T23:01:03.613Z,84.68
2019-01-30T23:03:49.042Z,84.84
2019-01-30T23:06:47.473Z,84.71
2019-01-30T23:09:52.454Z,84.84
2019-01-30T23:12:44.956Z,84.77
2019-01-30T23:15:23.814Z,84.66
2019-01-30T23:18:09.395Z,84.64
2019-01-30T23:20:46.584Z,84.32
2019-01-30T23:23:57.119Z,84.48
2019-01-30T23:26:39.665Z,84.48
2019-01-30T23:29:21.365Z,84.35
2019-01-30T23:31:55.184Z,84.55
2019-01-30T23:35:01.014Z,84.73
2019-01-30T23:37:52.715Z,84.84
2019-01-30T23:40:33.825Z,84.81
2019-01-30T23:44:04.591Z,85.06
2019-01-30T23:46:52.189Z,84.92
2019-01-30T23:49:42.074Z,84.97
2019-01-30T23:52:45.758Z,84.84
2019-01-30T23:55:44.990Z,84.70
2019-01-30T23:58:55.018Z,84.60
